Time;durP1;ratioP1;P1;durP2;ratioP2;P2;SDS_P1;SDS_P2;PMS_P1;PMS_P2;Temp;Humidity;BMP_temperature;BMP_pressure;BME280_temperature;BME280_humidity;BME280_pressure;Samples;Min_cycle;Max_cycle;Signal;HPM_P1;HPM_P2
2022/05/07 00:00:48;;;;;;;7.63;4.60;;;;;;;21.41;48.24;102421.66;5066015;28;20048;-51
2022/05/07 00:03:16;;;;;;;5.95;4.38;;;;;;;21.42;47.92;102426.06;5064263;28;20049;-52
2022/05/07 00:05:42;;;;;;;7.75;4.85;;;;;;;21.40;48.07;102420.81;5063659;28;20068;-51
2022/05/07 00:08:09;;;;;;;7.03;4.82;;;;;;;21.41;48.03;102422.53;5065582;28;20139;-52
2022/05/07 00:10:36;;;;;;;8.48;5.32;;;;;;;21.41;48.19;102418.97;5065267;28;20051;-53
2022/05/07 00:13:04;;;;;;;6.55;4.68;;;;;;;21.39;47.95;102421.81;5065222;28;20161;-50
2022/05/07 00:15:32;;;;;;;8.00;4.47;;;;;;;21.38;48.42;102425.47;5068577;28;20127;-53
2022/05/07 00:18:01;;;;;;;6.22;4.10;;;;;;;21.39;48.35;102420.97;5067742;28;20076;-52
2022/05/07 00:20:30;;;;;;;8.90;4.90;;;;;;;21.38;48.53;102416.53;5066579;28;20054;-50
2022/05/07 00:22:57;;;;;;;6.93;4.78;;;;;;;21.36;48.33;102411.28;5066224;28;20448;-49
2022/05/07 00:25:24;;;;;;;8.20;4.90;;;;;;;21.36;48.21;102410.44;5067293;28;20045;-50
2022/05/07 00:27:51;;;;;;;6.80;4.68;;;;;;;21.37;48.43;102406.75;5068646;28;20070;-55
2022/05/07 00:30:18;;;;;;;7.40;4.80;;;;;;;21.35;48.22;102406.91;5066006;28;20059;-51
2022/05/07 00:32:44;;;;;;;5.88;4.25;;;;;;;21.36;48.16;102407.75;5068103;28;20045;-50
2022/05/07 00:35:11;;;;;;;8.30;4.80;;;;;;;21.35;48.52;102406.91;5063870;28;20049;-50
2022/05/07 00:37:38;;;;;;;5.88;4.60;;;;;;;21.35;48.35;102400.66;5066407;28;20331;-51
2022/05/07 00:40:06;;;;;;;8.30;5.05;;;;;;;21.35;48.36;102397.97;5068000;28;20446;-50
2022/05/07 00:42:32;;;;;;;6.60;4.65;;;;;;;21.34;48.62;102402.47;5067620;28;20048;-51
2022/05/07 00:44:59;;;;;;;7.30;4.30;;;;;;;21.34;48.58;102398.94;5068075;28;20431;-52
2022/05/07 00:47:28;;;;;;;6.82;4.47;;;;;;;21.33;48.19;102391.84;5063685;28;20048;-53
2022/05/07 00:51:33;;;;;;;7.65;4.80;;;;;;;21.33;48.25;102391.84;5065309;28;20132;-51
2022/05/07 00:52:46;;;;;;;6.45;4.35;;;;;;;21.33;48.54;102392.69;5068122;28;20123;-51
2022/05/07 00:55:14;;;;;;;7.28;3.90;;;;;;;21.33;48.55;102391.84;5068109;28;20049;-49
2022/05/07 00:57:41;;;;;;;6.22;4.30;;;;;;;21.32;48.42;102387.41;5064504;28;20315;-51
2022/05/07 01:00:09;;;;;;;5.70;4.22;;;;;;;21.31;48.27;102383.88;5067046;28;20463;-51
2022/05/07 01:02:37;;;;;;;7.03;4.45;;;;;;;21.32;48.20;102373.91;5069915;28;20107;-50
2022/05/07 01:05:08;;;;;;;6.68;4.18;;;;;;;21.30;47.97;102382.13;5068138;28;20050;-50
2022/05/07 01:07:34;;;;;;;5.85;4.20;;;;;;;21.30;48.68;102375.88;5067205;28;20051;-49
2022/05/07 01:10:05;;;;;;;7.70;4.30;;;;;;;21.29;48.54;102379.59;5067759;28;20270;-52
2022/05/07 01:12:32;;;;;;;5.95;3.88;;;;;;;21.28;48.02;102369.78;5064234;28;20075;-51
2022/05/07 01:15:00;;;;;;;5.25;3.45;;;;;;;21.28;48.48;102367.09;5065001;28;20044;-49
2022/05/07 01:17:31;;;;;;;6.80;3.60;;;;;;;21.27;48.55;102360.84;5065055;28;20162;-52
2022/05/07 01:19:57;;;;;;;7.63;4.00;;;;;;;21.27;48.61;102360.00;5065121;28;20432;-52
2022/05/07 01:22:26;;;;;;;7.25;3.67;;;;;;;21.26;48.25;102358.28;5065179;28;20044;-51
2022/05/07 01:24:52;;;;;;;7.72;3.45;;;;;;;21.24;48.79;102371.06;5062401;28;20143;-50
2022/05/07 01:27:19;;;;;;;8.13;3.75;;;;;;;21.24;48.35;102373.75;5067174;28;20408;-51
2022/05/07 01:29:47;;;;;;;5.72;4.00;;;;;;;21.21;48.68;102372.19;5065476;28;20079;-51
2022/05/07 01:32:14;;;;;;;6.10;3.85;;;;;;;21.23;48.84;102369.34;5066896;28;20133;-49
2022/05/07 01:34:40;;;;;;;6.75;4.00;;;;;;;21.22;48.57;102367.63;5061915;28;20143;-52
2022/05/07 01:37:07;;;;;;;4.22;3.50;;;;;;;21.20;48.42;102381.25;5066544;28;20048;-51
2022/05/07 01:39:33;;;;;;;5.20;3.50;;;;;;;21.20;48.90;102374.03;5066589;28;20049;-50
2022/05/07 01:42:00;;;;;;;7.78;3.80;;;;;;;21.20;48.55;102373.19;5066436;28;20515;-48
2022/05/07 01:44:27;;;;;;;8.20;3.72;;;;;;;21.18;48.44;102370.59;5068063;28;20139;-51
2022/05/07 01:49:38;;;;;;;4.85;3.42;;;;;;;21.17;48.75;102359.97;5062833;28;20139;-51
2022/05/07 01:52:04;;;;;;;5.18;3.60;;;;;;;21.16;48.77;102356.41;5067676;28;20325;-52
2022/05/07 01:54:31;;;;;;;6.63;3.28;;;;;;;21.17;48.65;102368.06;5065536;28;20048;-51
2022/05/07 01:56:58;;;;;;;6.78;4.30;;;;;;;21.15;48.60;102356.56;5064503;28;20144;-51
2022/05/07 01:59:24;;;;;;;5.53;3.65;;;;;;;21.16;48.70;102369.06;5068239;28;20139;-50
2022/05/07 02:01:51;;;;;;;6.53;3.65;;;;;;;21.14;48.74;102360.22;5064519;28;20052;-49
2022/05/07 02:04:17;;;;;;;4.07;3.47;;;;;;;21.13;48.86;102361.22;5062585;28;20059;-51
2022/05/07 02:06:44;;;;;;;4.72;3.22;;;;;;;21.12;48.85;102357.69;5064790;28;20446;-52
2022/05/07 02:09:10;;;;;;;5.78;3.50;;;;;;;21.11;48.84;102361.38;5062839;28;20044;-48
2022/05/07 02:11:37;;;;;;;8.10;3.67;;;;;;;21.11;49.00;102355.13;5062996;28;20142;-49
2022/05/07 02:14:04;;;;;;;6.57;3.20;;;;;;;21.10;49.28;102359.66;5065673;28;20061;-53
2022/05/07 02:16:31;;;;;;;4.85;3.50;;;;;;;21.10;48.51;102359.66;5063594;28;20049;-52
2022/05/07 02:18:58;;;;;;;4.38;3.20;;;;;;;21.10;48.85;102361.50;5066162;28;20052;-51
2022/05/07 02:21:24;;;;;;;5.57;3.85;;;;;;;21.08;49.20;102358.94;5066916;28;20326;-51
2022/05/07 02:23:51;;;;;;;5.25;3.22;;;;;;;21.08;48.84;102366.19;5064262;28;20083;-50
2022/05/07 02:26:17;;;;;;;5.57;3.53;;;;;;;21.07;49.11;102354.56;5066922;28;20127;-49
2022/05/07 02:28:44;;;;;;;4.88;2.85;;;;;;;21.06;49.00;102355.50;5063732;28;20331;-49
2022/05/07 02:31:11;;;;;;;5.95;3.60;;;;;;;21.07;48.58;102359.09;5065291;28;20044;-52
2022/05/07 02:33:38;;;;;;;4.40;3.00;;;;;;;21.06;48.62;102360.91;5065807;28;20109;-51
2022/05/07 02:36:04;;;;;;;4.82;3.30;;;;;;;21.06;48.59;102357.38;5060701;28;20113;-47
2022/05/07 02:38:31;;;;;;;5.13;3.10;;;;;;;21.05;48.75;102356.50;5066183;28;20081;-51
2022/05/07 02:43:56;;;;;;;5.03;3.00;;;;;;;21.03;48.52;102353.13;5019126;28;20049;-50
2022/05/07 02:46:23;;;;;;;5.30;3.10;;;;;;;21.03;48.96;102346.88;5062364;28;20357;-51
2022/05/07 02:48:49;;;;;;;4.95;3.20;;;;;;;21.02;48.81;102350.53;5065696;28;20044;-50
2022/05/07 02:51:16;;;;;;;6.13;3.00;;;;;;;21.02;48.75;102353.25;5067255;28;20047;-46
2022/05/07 02:53:43;;;;;;;4.38;3.05;;;;;;;21.00;48.68;102349.84;5064709;28;20055;-47
2022/05/07 02:56:09;;;;;;;4.60;3.05;;;;;;;21.01;48.72;102349.69;5063766;28;20052;-47
2022/05/07 02:58:36;;;;;;;5.20;3.10;;;;;;;21.01;49.23;102357.78;5066422;28;20559;-50
2022/05/07 03:01:02;;;;;;;4.70;3.30;;;;;;;21.00;48.71;102352.53;5064985;28;20416;-50
2022/05/07 03:03:29;;;;;;;5.60;3.28;;;;;;;20.99;49.48;102362.47;5064677;28;20083;-51
2022/05/07 03:05:58;;;;;;;4.80;3.17;;;;;;;20.99;49.44;102370.56;5065589;28;20182;-51
2022/05/07 03:08:25;;;;;;;4.65;3.42;;;;;;;20.97;48.99;102358.19;5064892;28;20075;-51
2022/05/07 03:10:51;;;;;;;5.05;2.85;;;;;;;20.96;48.86;102362.72;5063335;28;20110;-47
2022/05/07 03:13:18;;;;;;;4.82;2.72;;;;;;;20.95;49.48;102363.72;5064184;28;20327;-51
2022/05/07 03:15:45;;;;;;;3.80;2.78;;;;;;;20.95;48.87;102361.88;5065625;28;20044;-48
2022/05/07 03:18:12;;;;;;;4.55;3.35;;;;;;;20.95;48.97;102364.59;5064497;28;20048;-47
2022/05/07 03:20:40;;;;;;;3.78;2.70;;;;;;;20.93;49.26;102354.91;5062537;28;20430;-49
2022/05/07 03:23:06;;;;;;;5.20;2.85;;;;;;;20.93;49.03;102361.16;5059266;28;20414;-50
2022/05/07 03:25:33;;;;;;;5.95;2.47;;;;;;;20.93;48.87;102360.31;5063450;28;20054;-50
2022/05/07 03:28:00;;;;;;;4.55;3.15;;;;;;;20.91;49.52;102363.16;5066044;28;20043;-51
2022/05/07 03:30:26;;;;;;;4.45;2.47;;;;;;;20.92;49.35;102358.59;5063070;28;20044;-50
2022/05/07 03:32:53;;;;;;;4.88;3.17;;;;;;;20.91;49.25;102368.53;5064840;28;21296;-48
2022/05/07 03:35:20;;;;;;;4.85;3.35;;;;;;;20.90;49.24;102365.97;5061430;28;20047;-53
2022/05/07 03:37:46;;;;;;;4.05;2.85;;;;;;;20.90;49.68;102363.25;5065274;28;20055;-51
2022/05/07 03:40:13;;;;;;;4.07;2.80;;;;;;;20.89;49.45;102372.34;5063743;28;20048;-52
2022/05/07 03:42:39;;;;;;;4.93;2.88;;;;;;;20.89;49.12;102372.34;5067350;28;20151;-48
2022/05/07 03:45:08;;;;;;;5.03;2.80;;;;;;;20.87;48.94;102366.25;5066604;28;20049;-51
2022/05/07 03:47:34;;;;;;;5.55;3.47;;;;;;;20.85;49.18;102368.22;5067143;28;20044;-48
2022/05/07 03:50:01;;;;;;;4.03;2.70;;;;;;;20.85;49.06;102371.75;5063050;28;20135;-51
2022/05/07 03:55:13;;;;;;;6.25;2.97;;;;;;;20.83;49.67;102373.75;5064165;28;20052;-50
2022/05/07 03:57:40;;;;;;;4.45;2.80;;;;;;;20.85;49.41;102376.31;5062083;28;20048;-47
2022/05/07 04:00:07;;;;;;;4.18;2.97;;;;;;;20.83;49.02;102376.44;5064673;28;20143;-48
2022/05/07 04:02:35;;;;;;;4.85;2.53;;;;;;;20.82;49.19;102366.63;5062088;28;20450;-52
2022/05/07 04:05:03;;;;;;;4.00;2.70;;;;;;;20.84;49.44;102371.91;5059705;28;20060;-50
2022/05/07 04:07:29;;;;;;;6.05;2.67;;;;;;;20.83;49.58;102375.59;5066726;28;20052;-53
2022/05/07 04:09:56;;;;;;;7.28;3.30;;;;;;;20.83;49.33;102370.22;5065430;28;20055;-53
2022/05/07 04:12:23;;;;;;;3.85;2.50;;;;;;;20.83;49.24;102370.22;5065201;28;20064;-50
2022/05/07 04:14:50;;;;;;;5.07;2.70;;;;;;;20.84;49.48;102372.75;5062134;28;20071;-52
2022/05/07 04:17:16;;;;;;;4.45;2.85;;;;;;;20.82;49.06;102371.16;5062851;28;20059;-49
2022/05/07 04:19:43;;;;;;;4.85;3.00;;;;;;;20.82;49.10;102376.56;5063701;28;20052;-48
2022/05/07 04:22:09;;;;;;;4.10;2.58;;;;;;;20.80;49.60;102374.00;5065088;28;20397;-49
2022/05/07 04:24:36;;;;;;;3.47;2.60;;;;;;;20.81;49.18;102377.56;5065532;28;20048;-51
2022/05/07 04:27:03;;;;;;;4.30;2.55;;;;;;;20.79;49.64;102383.09;5063990;28;20123;-47
2022/05/07 04:29:30;;;;;;;4.00;2.92;;;;;;;20.78;49.89;102380.50;5064414;28;20048;-46
2022/05/07 04:31:56;;;;;;;4.22;3.00;;;;;;;20.79;49.89;102390.31;5065103;28;20054;-52
2022/05/07 04:34:24;;;;;;;4.10;2.80;;;;;;;20.78;49.27;102389.44;5059471;28;20370;-53
2022/05/07 04:36:50;;;;;;;4.93;2.80;;;;;;;20.79;49.25;102384.94;5064186;28;20049;-47
2022/05/07 04:39:17;;;;;;;5.18;3.00;;;;;;;20.79;49.84;102388.47;5063492;28;20084;-47
2022/05/07 04:41:43;;;;;;;4.60;3.03;;;;;;;20.79;49.91;102391.19;5059723;28;20442;-50
2022/05/07 04:44:10;;;;;;;4.70;3.40;;;;;;;20.78;49.81;102384.06;5058697;28;20048;-48
2022/05/07 04:46:37;;;;;;;4.20;2.67;;;;;;;20.77;49.67;102390.44;5059210;28;20037;-48
2022/05/07 04:49:05;;;;;;;4.10;2.72;;;;;;;20.78;49.60;102388.59;5064452;28;20052;-48
2022/05/07 04:51:32;;;;;;;4.88;2.83;;;;;;;20.77;49.88;102384.22;5065084;28;20063;-50
2022/05/07 04:54:07;;;;;;;4.38;3.05;;;;;;;20.78;49.89;102388.59;5061551;28;20768;-51
2022/05/07 04:56:33;;;;;;;5.32;2.80;;;;;;;20.77;49.31;102395.84;5064241;28;20094;-49
2022/05/07 04:59:00;;;;;;;4.65;3.00;;;;;;;20.77;49.81;102393.13;5067681;28;20120;-51
2022/05/07 05:01:27;;;;;;;4.18;2.83;;;;;;;20.78;49.48;102396.69;5067363;28;20393;-51
2022/05/07 05:03:53;;;;;;;5.75;2.65;;;;;;;20.76;50.14;102404.06;5067068;28;20090;-49
2022/05/07 05:06:20;;;;;;;4.43;2.65;;;;;;;20.78;50.12;102408.31;5068997;28;20449;-48
2022/05/07 05:08:47;;;;;;;5.20;2.55;;;;;;;20.79;49.50;102403.81;5065194;28;20132;-49
2022/05/07 05:11:13;;;;;;;4.72;2.88;;;;;;;20.77;50.08;102408.47;5067533;28;20057;-46
2022/05/07 05:13:40;;;;;;;4.53;2.80;;;;;;;20.78;50.10;102413.69;5066281;28;20055;-52
2022/05/07 05:16:06;;;;;;;3.75;2.67;;;;;;;20.77;50.15;102414.69;5068683;28;20048;-48
2022/05/07 05:18:33;;;;;;;4.03;2.65;;;;;;;20.77;49.99;102420.09;5067126;28;20052;-50
2022/05/07 05:20:59;;;;;;;6.18;2.80;;;;;;;20.78;50.17;102423.63;5066360;28;20063;-50
2022/05/07 05:23:28;;;;;;;4.20;2.97;;;;;;;20.77;50.00;102425.47;5066933;28;20152;-50
2022/05/07 05:25:55;;;;;;;4.88;3.00;;;;;;;20.76;49.40;102421.09;5067862;28;20350;-50
2022/05/07 05:28:21;;;;;;;5.53;3.42;;;;;;;20.77;49.45;102417.38;5070486;28;20047;-51
2022/05/07 05:30:51;;;;;;;4.95;2.92;;;;;;;20.78;49.94;102418.25;5065990;28;20048;-48
2022/05/07 05:33:21;;;;;;;4.00;2.50;;;;;;;20.77;49.75;102424.63;5063936;28;20063;-53
2022/05/07 05:35:48;;;;;;;6.35;2.88;;;;;;;20.79;49.68;102419.97;5065848;28;20049;-50
2022/05/07 05:38:15;;;;;;;6.32;3.08;;;;;;;20.79;49.41;102428.91;5067991;28;20305;-51
2022/05/07 05:40:42;;;;;;;8.07;3.08;;;;;;;20.79;49.66;102434.28;5044924;28;20139;-52
2022/05/07 05:43:09;;;;;;;4.28;2.50;;;;;;;20.80;49.66;102424.38;5067674;28;20044;-48
2022/05/07 05:45:37;;;;;;;3.97;2.55;;;;;;;20.80;49.26;102427.06;5066081;28;20063;-52
2022/05/07 05:48:04;;;;;;;5.07;3.17;;;;;;;20.81;49.27;102434.16;5063979;28;20302;-49
2022/05/07 05:50:31;;;;;;;5.78;2.97;;;;;;;20.81;49.12;102440.38;5067599;28;20132;-48
2022/05/07 05:52:58;;;;;;;6.13;3.03;;;;;;;20.81;49.45;102436.84;5066301;28;20045;-47
2022/05/07 05:55:25;;;;;;;5.00;2.95;;;;;;;20.81;49.63;102434.16;5066594;28;20147;-48
2022/05/07 05:57:51;;;;;;;5.43;3.08;;;;;;;20.82;49.83;102441.25;5066558;28;20405;-49
2022/05/07 06:00:19;;;;;;;4.10;2.80;;;;;;;20.80;49.89;102436.00;5067450;28;20047;-49
2022/05/07 06:02:45;;;;;;;4.30;2.88;;;;;;;20.81;49.24;102440.38;5065994;28;20063;-49
2022/05/07 06:05:12;;;;;;;4.55;2.78;;;;;;;20.81;49.86;102443.09;5066742;28;20044;-52
2022/05/07 06:07:39;;;;;;;4.78;3.50;;;;;;;20.82;49.25;102443.94;5060969;28;20053;-49
2022/05/07 06:10:05;;;;;;;4.45;2.90;;;;;;;20.82;49.62;102442.09;5066519;28;20050;-48
2022/05/07 06:12:33;;;;;;;5.10;3.28;;;;;;;20.82;49.74;102446.63;5065155;28;20056;-51
2022/05/07 06:14:59;;;;;;;7.88;3.67;;;;;;;20.83;49.50;102453.75;5063367;28;20054;-46
2022/05/07 06:17:26;;;;;;;4.65;3.35;;;;;;;20.83;48.99;102442.97;5061597;28;20036;-52
2022/05/07 06:19:53;;;;;;;8.23;3.50;;;;;;;20.83;49.77;102443.81;5064152;28;20099;-50
2022/05/07 06:22:20;;;;;;;5.50;3.55;;;;;;;20.85;49.38;102440.97;5059016;28;20053;-49
2022/05/07 06:27:31;;;;;;;7.45;3.58;;;;;;;20.86;49.48;102448.06;5064074;28;20049;-51
2022/05/07 06:29:59;;;;;;;6.03;3.33;;;;;;;20.85;49.52;102451.75;5063100;28;20224;-52
2022/05/07 06:32:38;;;;;;;5.00;2.92;;;;;;;20.86;49.57;102453.47;5063838;28;20045;-50
2022/05/07 06:35:06;;;;;;;6.78;3.35;;;;;;;20.86;49.69;102456.16;5068102;28;20072;-47
2022/05/07 06:37:34;;;;;;;6.10;3.75;;;;;;;20.87;48.99;102456.03;5067410;28;20040;-51
2022/05/07 06:40:03;;;;;;;8.43;4.03;;;;;;;20.88;49.50;102459.59;5063511;28;20059;-50
2022/05/07 06:42:30;;;;;;;8.57;4.10;;;;;;;20.90;49.43;102453.09;5065088;28;20052;-49
2022/05/07 06:44:56;;;;;;;6.38;4.03;;;;;;;20.91;49.51;102456.63;5066763;28;20144;-47
2022/05/07 06:47:30;;;;;;;5.70;3.72;;;;;;;20.92;48.75;102459.19;5067364;28;20049;-49
2022/05/07 06:49:57;;;;;;;6.82;3.50;;;;;;;20.93;49.21;102454.66;5065108;28;20171;-49
2022/05/07 06:52:24;;;;;;;5.95;3.88;;;;;;;20.95;48.98;102458.06;5065189;28;20079;-53
2022/05/07 06:54:51;;;;;;;9.57;4.57;;;;;;;20.94;48.66;102450.94;5064584;28;20052;-50
2022/05/07 06:57:17;;;;;;;6.90;3.10;;;;;;;20.97;48.69;102458.78;5067049;28;20438;-50
2022/05/07 06:59:44;;;;;;;5.63;3.25;;;;;;;20.97;48.84;102452.53;5064964;28;20048;-50
2022/05/07 07:02:10;;;;;;;5.80;3.00;;;;;;;20.98;48.83;102457.78;5060579;28;20055;-49
2022/05/07 07:04:37;;;;;;;5.30;3.28;;;;;;;21.00;48.85;102463.06;5065532;28;20078;-49
2022/05/07 07:07:03;;;;;;;6.00;3.15;;;;;;;21.01;49.00;102470.16;5065220;28;20063;-49
2022/05/07 07:09:30;;;;;;;6.90;3.60;;;;;;;21.01;49.11;102465.63;5066461;28;20328;-50
2022/05/07 07:11:56;;;;;;;7.65;3.88;;;;;;;21.01;49.27;102456.69;5064845;28;20057;-50
2022/05/07 07:14:23;;;;;;;6.70;4.25;;;;;;;21.02;49.01;102461.91;5068515;28;20478;-52
2022/05/07 07:16:50;;;;;;;8.48;4.53;;;;;;;21.02;49.11;102461.91;5067315;28;20056;-52
2022/05/07 07:19:16;;;;;;;9.70;4.75;;;;;;;21.03;49.28;102470.88;5065511;28;20136;-49
2022/05/07 07:21:43;;;;;;;8.20;4.80;;;;;;;21.04;48.59;102467.19;5064745;28;20135;-52
2022/05/07 07:24:10;;;;;;;8.95;4.85;;;;;;;21.03;48.55;102460.09;5047127;28;20053;-51
2022/05/07 07:26:37;;;;;;;11.32;4.90;;;;;;;21.04;48.80;102462.66;5044894;28;20044;-52
2022/05/07 07:29:03;;;;;;;7.75;5.03;;;;;;;21.05;48.79;102463.50;5035265;28;20043;-52
2022/05/07 07:31:31;;;;;;;9.35;5.38;;;;;;;21.05;48.53;102467.06;5029807;28;20045;-52
2022/05/07 07:33:58;;;;;;;8.90;4.90;;;;;;;21.06;48.42;102466.06;5043821;28;20044;-52
2022/05/07 07:36:24;;;;;;;8.95;5.20;;;;;;;21.06;48.62;102466.06;5044103;28;20073;-52
2022/05/07 07:38:51;;;;;;;8.38;5.10;;;;;;;21.07;48.95;102466.94;5044574;28;20336;-51
2022/05/07 07:41:17;;;;;;;9.80;5.30;;;;;;;21.08;49.15;102464.09;5045839;28;20135;-48
2022/05/07 07:43:44;;;;;;;8.48;5.32;;;;;;;21.09;49.19;102470.34;5038771;28;20583;-51
2022/05/07 07:48:57;;;;;;;16.42;6.72;;;;;;;21.11;49.03;102477.31;5045512;28;20041;-50
2022/05/07 07:51:23;;;;;;;14.50;6.20;;;;;;;21.12;49.05;102473.63;5044083;28;20504;-53
2022/05/07 07:53:50;;;;;;;12.75;6.32;;;;;;;21.12;48.68;102475.47;5044738;28;20047;-56
2022/05/07 07:56:18;;;;;;;9.90;6.88;;;;;;;21.14;48.54;102476.16;5044302;28;20148;-50
2022/05/07 07:58:44;;;;;;;11.48;6.53;;;;;;;21.15;49.12;102467.13;5040202;28;20039;-51
2022/05/07 08:01:11;;;;;;;10.45;6.03;;;;;;;21.15;48.30;102476.06;5040433;28;20331;-50
2022/05/07 08:03:37;;;;;;;12.80;6.68;;;;;;;21.16;48.28;102477.75;5043466;28;20484;-50
2022/05/07 08:06:04;;;;;;;13.20;5.95;;;;;;;21.17;48.31;102476.75;5043617;28;20483;-53
2022/05/07 08:14:02;;;;;;;12.15;6.20;;;;;;;21.22;48.57;102481.75;5041275;28;20052;-51
2022/05/07 08:16:28;;;;;;;12.90;7.88;;;;;;;21.24;48.85;102484.31;5038307;28;20449;-48
2022/05/07 08:18:56;;;;;;;20.92;7.45;;;;;;;21.24;48.90;102485.19;5039059;28;20076;-51
2022/05/07 08:21:23;;;;;;;21.92;8.52;;;;;;;21.27;48.42;102486.75;5041422;28;20107;-50
2022/05/07 08:23:50;;;;;;;29.45;10.32;;;;;;;21.27;48.55;102495.69;5059585;28;20052;-48
2022/05/07 08:26:17;;;;;;;28.63;9.50;;;;;;;21.27;48.84;102487.63;5062530;28;20053;-53
2022/05/07 08:28:44;;;;;;;25.63;9.90;;;;;;;21.28;48.31;102489.31;5063158;28;20036;-50
2022/05/07 08:31:11;;;;;;;24.67;9.70;;;;;;;21.30;48.78;102494.56;5056625;28;20121;-49
2022/05/07 08:33:41;;;;;;;29.27;10.85;;;;;;;21.31;48.55;102496.28;5070477;28;20361;-49
2022/05/07 08:36:08;;;;;;;28.38;9.55;;;;;;;21.31;48.70;102490.91;5070009;28;20074;-48
2022/05/07 08:38:35;;;;;;;24.65;9.88;;;;;;;21.31;48.79;102490.91;5070111;28;20127;-51
2022/05/07 08:41:02;;;;;;;27.17;10.25;;;;;;;21.33;48.60;102483.53;5072249;28;20059;-50
2022/05/07 08:43:37;;;;;;;24.80;10.10;;;;;;;21.33;48.81;102488.94;5071848;28;20485;-52
2022/05/07 08:46:10;;;;;;;24.75;10.65;;;;;;;21.34;48.75;102498.72;5072493;28;20051;-51
2022/05/07 08:48:39;;;;;;;30.17;11.40;;;;;;;21.34;48.81;102496.03;5071420;28;20072;-51
2022/05/07 08:51:06;;;;;;;24.88;10.95;;;;;;;21.35;48.84;102493.22;5071023;28;20084;-50
2022/05/07 08:53:33;;;;;;;27.73;11.65;;;;;;;21.35;49.02;102501.31;5072993;28;20044;-52
2022/05/07 08:56:00;;;;;;;28.77;10.05;;;;;;;21.37;49.23;102490.38;5070980;28;20054;-49
2022/05/07 08:58:27;;;;;;;26.92;10.43;;;;;;;21.36;48.80;102486.81;5071592;28;20040;-50
2022/05/07 09:00:53;;;;;;;29.52;10.90;;;;;;;21.38;49.26;102483.97;5072154;28;20044;-51
2022/05/07 09:03:20;;;;;;;28.23;11.27;;;;;;;21.38;48.64;102481.28;5070482;28;20037;-52
2022/05/07 09:05:46;;;;;;;25.48;9.50;;;;;;;21.39;49.16;102486.56;5071052;28;20502;-53
2022/05/07 09:08:13;;;;;;;29.60;10.80;;;;;;;21.41;49.14;102489.09;5073014;28;20461;-50
2022/05/07 09:10:41;;;;;;;28.85;11.40;;;;;;;21.42;49.19;102494.34;5052504;28;20045;-50
2022/05/07 09:13:16;;;;;;;24.67;10.60;;;;;;;21.43;49.02;102495.22;5072057;28;20123;-52
2022/05/07 09:15:55;;;;;;;23.27;9.32;;;;;;;21.44;49.33;102492.38;5068299;28;20364;-53
2022/05/07 09:18:23;;;;;;;24.15;9.70;;;;;;;21.47;49.23;102493.09;5070520;28;20045;-54
2022/05/07 09:21:16;;;;;;;22.52;9.88;;;;;;;21.49;49.12;102496.53;5070652;28;20154;-53
2022/05/07 09:23:48;;;;;;;25.52;9.88;;;;;;;21.52;49.29;102496.25;5066831;28;20049;-54
2022/05/07 09:26:25;;;;;;;23.50;9.48;;;;;;;;;;5072213;28;20036;-52
2022/05/07 09:28:52;;;;;;;24.75;9.48;;;;;;;21.57;49.11;102492.16;5071646;28;20063;-54
2022/05/07 09:31:33;;;;;;;20.13;9.60;;;;;;;21.60;48.74;102486.47;5071086;28;20136;-49
2022/05/07 09:37:01;;;;;;;27.38;9.77;;;;;;;21.69;48.72;102491.03;5071803;28;20144;-53
2022/05/07 09:39:32;;;;;;;24.95;8.88;;;;;;;21.72;48.97;102492.63;5070217;28;20123;-52
2022/05/07 09:41:59;;;;;;;17.75;8.55;;;;;;;21.76;48.75;102495.91;5070458;28;20049;-52
2022/05/07 09:44:28;;;;;;;20.63;8.88;;;;;;;21.78;48.73;102492.06;5071254;28;20051;-52
2022/05/07 09:46:56;;;;;;;17.83;8.98;;;;;;;21.82;48.76;102489.94;5069815;28;20135;-53
2022/05/07 09:49:25;;;;;;;16.05;8.23;;;;;;;21.86;48.62;102496.78;5069948;28;20040;-52
2022/05/07 09:51:53;;;;;;;18.20;8.48;;;;;;;21.90;48.38;102495.50;5069697;28;20358;-51
2022/05/07 09:59:56;;;;;;;16.60;8.05;;;;;;;21.99;48.04;102501.91;5068648;28;20908;-53
2022/05/07 10:02:48;;;;;;;18.83;8.48;;;;;;;22.01;48.30;102505.34;5069879;28;20053;-53
2022/05/07 10:05:36;;;;;;;16.50;9.00;;;;;;;22.03;48.43;102503.34;5065095;28;20055;-53
2022/05/07 10:08:37;;;;;;;15.60;8.38;;;;;;;22.05;48.42;102507.59;5068168;28;20043;-53
2022/05/07 10:11:06;;;;;;;13.88;8.27;;;;;;;22.08;48.18;102496.53;5069961;28;20136;-53
2022/05/07 10:13:33;;;;;;;14.88;8.20;;;;;;;22.10;48.45;102499.09;5067446;28;20094;-52
2022/05/07 10:16:01;;;;;;;15.43;7.80;;;;;;;22.11;48.10;102498.09;5067619;28;20070;-54
2022/05/07 10:18:41;;;;;;;15.55;7.80;;;;;;;22.12;48.07;102506.06;5070058;28;20037;-51
2022/05/07 10:21:15;;;;;;;16.35;7.85;;;;;;;22.12;48.07;102497.97;5068777;28;20071;-53
2022/05/07 10:23:53;;;;;;;15.35;7.55;;;;;;;22.13;47.90;102499.69;5070941;28;20048;-55
2022/05/07 10:26:22;;;;;;;13.60;7.03;;;;;;;22.14;47.82;102501.38;5067769;28;20127;-54
2022/05/07 10:28:49;;;;;;;12.98;6.80;;;;;;;22.14;47.68;102501.38;5070403;28;20040;-54
2022/05/07 10:31:18;;;;;;;14.98;6.90;;;;;;;22.17;47.96;102501.13;5069708;28;20088;-52
2022/05/07 10:33:45;;;;;;;13.32;7.60;;;;;;;22.18;47.71;102494.72;5071033;28;20067;-51
2022/05/07 10:36:12;;;;;;;14.77;6.95;;;;;;;22.22;47.67;102507.94;5069582;28;20376;-49
2022/05/07 10:38:45;;;;;;;13.45;6.70;;;;;;;22.22;47.77;102498.00;5069213;28;20040;-51
2022/05/07 10:41:12;;;;;;;11.07;6.35;;;;;;;22.25;47.78;102491.47;5066954;28;20051;-53
2022/05/07 10:43:46;;;;;;;12.32;6.30;;;;;;;22.25;47.63;102495.00;5071088;28;20072;-52
2022/05/07 10:46:20;;;;;;;12.43;6.53;;;;;;;22.25;47.52;102495.00;5070030;28;20051;-52
2022/05/07 10:49:04;;;;;;;12.20;6.75;;;;;;;22.25;47.52;102486.06;5070257;28;20040;-53
2022/05/07 10:51:50;;;;;;;10.00;6.20;;;;;;;22.27;47.66;102495.75;5070479;28;20102;-50
2022/05/07 10:54:24;;;;;;;12.18;6.25;;;;;;;22.30;47.55;102499.97;5070250;28;20079;-50
2022/05/07 10:56:52;;;;;;;11.60;6.13;;;;;;;22.28;47.55;102489.34;5069212;28;20040;-48
2022/05/07 10:59:21;;;;;;;12.32;5.93;;;;;;;22.29;47.37;102498.28;5070174;28;20076;-55
2022/05/07 11:01:49;;;;;;;11.35;6.15;;;;;;;22.29;47.56;102492.88;5067474;28;20040;-55
2022/05/07 11:04:18;;;;;;;11.98;6.32;;;;;;;22.28;47.49;102502.00;5070099;28;20040;-55
2022/05/07 11:06:52;;;;;;;11.52;5.90;;;;;;;22.26;47.65;102498.56;5067595;28;20051;-54
2022/05/07 11:09:26;;;;;;;10.15;6.10;;;;;;;22.26;47.67;102501.25;5069562;28;20454;-55
2022/05/07 11:11:54;;;;;;;;;;;;;;;22.25;47.35;102504.97;5069877;28;20066;-54
2022/05/07 11:14:32;;;;;;;9.55;5.47;;;;;;;22.27;47.60;102500.25;5069759;28;19916;-54
2022/05/07 11:17:01;;;;;;;11.38;5.95;;;;;;;22.28;47.29;102497.44;5068274;28;20079;-53
2022/05/07 11:19:31;;;;;;;9.07;6.00;;;;;;;22.29;47.34;102503.69;5051189;28;20071;-54
2022/05/07 11:21:59;;;;;;;11.00;5.90;;;;;;;22.29;47.27;102503.69;5069594;28;20072;-56
2022/05/07 11:24:28;;;;;;;10.80;6.10;;;;;;;22.29;47.43;102504.53;5067873;28;20056;-56
2022/05/07 11:27:06;;;;;;;10.40;6.10;;;;;;;22.30;47.46;102499.97;5067911;28;20044;-56
2022/05/07 11:29:34;;;;;;;7.32;4.70;;;;;;;22.31;47.36;102501.69;5067995;28;20124;-54
2022/05/07 11:32:07;;;;;;;9.85;5.88;;;;;;;22.30;47.59;102503.53;5069616;28;20065;-55
2022/05/07 11:34:35;;;;;;;9.18;5.72;;;;;;;22.30;47.19;102511.63;5067750;28;20036;-54
2022/05/07 11:37:11;;;;;;;9.27;5.80;;;;;;;22.30;47.20;102503.53;5068370;28;20123;-53
2022/05/07 11:39:55;;;;;;;9.43;5.72;;;;;;;22.31;47.56;102501.69;5063002;28;20123;-54
2022/05/07 11:42:26;;;;;;;8.48;5.32;;;;;;;22.34;47.46;102498.72;5065683;28;20099;-55
2022/05/07 11:45:26;;;;;;;8.40;5.72;;;;;;;22.37;47.31;102506.53;5065421;28;20059;-55
2022/05/07 11:48:08;;;;;;;10.15;5.78;;;;;;;22.37;47.20;102501.13;5068473;28;20127;-56
2022/05/07 11:50:41;;;;;;;8.50;5.55;;;;;;;22.40;47.46;102508.97;5069959;28;20040;-52
2022/05/07 11:53:12;;;;;;;9.80;5.10;;;;;;;22.41;47.32;102503.41;5066845;28;20051;-53
2022/05/07 11:55:40;;;;;;;8.15;5.10;;;;;;;22.44;47.13;102501.44;5068046;28;20050;-55
2022/05/07 11:58:17;;;;;;;11.48;5.90;;;;;;;22.44;47.16;102493.31;5068367;28;20485;-55